This is the latest recevied weather packets stored in our database for station/object DB2AG-13. If no packets are shown the sender has not sent any weather packets the latest 10 day(s).
| Time | Temp. | Humidity | Pressure | Rain* | Wind** | Luminosity | Snow |
|---|---|---|---|---|---|---|---|
| 1787941356 | 17.22° C | 72% | 1011.2 hPa | - | - | - | - |
| 1787940816 | 17.78° C | 72% | 1011.3 hPa | - | - | - | - |
| 1787940279 | 17.78° C | 72% | 1011.2 hPa | - | - | - | - |
| 1787939734 | 17.78° C | 72% | 1010.9 hPa | - | - | - | - |
| 1787939191 | 17.78° C | 72% | 1010.9 hPa | - | - | - | - |
| 1787937557 | 17.22° C | 74% | 1010.8 hPa | - | - | - | - |
| 1787937019 | 17.22° C | 73% | 1010.5 hPa | - | - | - | - |
| 1787936476 | 17.22° C | 72% | 1010.6 hPa | - | - | - | - |
| 1787935938 | 17.78° C | 72% | 1010.8 hPa | - | - | - | - |
| 1787934852 | 17.78° C | 70% | 1011.1 hPa | - | - | - | - |
| 1787934314 | 18.33° C | 68% | 1010.7 hPa | - | - | - | - |
| 1787933774 | 18.89° C | 66% | 1011.4 hPa | - | - | - | - |
| 1787933232 | 20° C | 63% | 1011.4 hPa | - | - | - | - |
| 1787931065 | 25° C | 55% | 1009.2 hPa | - | - | - | - |
| 1787930519 | 25° C | 54% | 1009.5 hPa | - | - | - | - |
| 1787929983 | 25° C | 53% | 1009.6 hPa | - | - | - | - |
| 1787929444 | 25° C | 54% | 1009.6 hPa | - | - | - | - |
| 1787928904 | 25° C | 53% | 1009.6 hPa | - | - | - | - |
| 1787928367 | 25.56° C | 53% | 1009.6 hPa | - | - | - | - |
| 1787927829 | 25.56° C | 51% | 1009.5 hPa | - | - | - | - |
| 1787927295 | 26.11° C | 50% | 1009.7 hPa | - | - | - | - |
| 1787926758 | 26.67° C | 49% | 1009.7 hPa | - | - | - | - |
| 1787926223 | 26.67° C | 49% | 1009.6 hPa | - | - | - | - |
| 1787925691 | 26.67° C | 48% | 1009.9 hPa | - | - | - | - |
| 1787925147 | 27.22° C | 47% | 1010.1 hPa | - | - | - | - |
* Rain since midnight (hover to see other rain measurements)
** Current wind speed in m/s (hover to see current wind gust speed)